Wetterdaten: Woche 26.06.17 - 02.07.17 (KW26)
Datum Zeit Temp. A. Pool Temp. Feuchte A. Luftdruck Regen Wind Richtung Sonnenschein ET UV Solar Taupunkt Windchill Windben Empfang
26.06.2017 00:00 18,4 C 25,6 C 80 % 1013,0 hPa 0,0 l/m 9,8 km/h (2 Bft) SW 0,00 h 0,000 mm 0,0 UV-I 0 W/m 14,9 C 17,0 C 15,1 km/h (3 Bft) 97,19 %
26.06.2017 01:00 18,8 C 25,6 C 77 % 1012,9 hPa 0,0 l/m 8,8 km/h (2 Bft) SW 0,00 h 0,025 mm 0,0 UV-I 0 W/m 14,7 C 17,8 C 13,3 km/h (3 Bft) 95,81 %
26.06.2017 02:00 18,0 C 25,6 C 80 % 1012,8 hPa 0,0 l/m 8,2 km/h (2 Bft) SW 0,00 h 0,026 mm 0,0 UV-I 0 W/m 14,4 C 17,2 C 12,6 km/h (3 Bft) 97,11 %
26.06.2017 03:00 17,6 C 25,6 C 83 % 1012,6 hPa 0,0 l/m 8,3 km/h (2 Bft) SW 0,00 h 0,025 mm 0,0 UV-I 0 W/m 14,6 C 16,7 C 13,1 km/h (3 Bft) 98,09 %
26.06.2017 04:00 17,7 C 25,6 C 83 % 1012,6 hPa 0,0 l/m 10,0 km/h (2 Bft) SW 0,00 h 0,026 mm 0,0 UV-I 0 W/m 14,8 C 16,1 C 14,9 km/h (3 Bft) 96,16 %
26.06.2017 05:00 17,8 C 25,6 C 83 % 1012,5 hPa 0,0 l/m 9,6 km/h (2 Bft) SW 0,27 h 0,025 mm 0,0 UV-I 27 W/m 14,9 C 16,4 C 14,8 km/h (3 Bft) 95,58 %
26.06.2017 06:00 18,3 C 25,6 C 81 % 1012,7 hPa 0,0 l/m 9,3 km/h (2 Bft) SW 0,18 h 0,051 mm 0,0 UV-I 77 W/m 15,1 C 17,1 C 14,0 km/h (3 Bft) 96,17 %
26.06.2017 07:00 19,1 C 25,6 C 79 % 1012,9 hPa 0,0 l/m 8,6 km/h (2 Bft) SW 0,20 h 0,076 mm 0,7 UV-I 142 W/m 15,5 C 18,2 C 13,5 km/h (3 Bft) 97,75 %
26.06.2017 08:00 20,5 C 25,6 C 73 % 1013,0 hPa 0,0 l/m 10,0 km/h (2 Bft) SW 0,27 h 0,102 mm 1,2 UV-I 265 W/m 15,5 C 19,2 C 15,7 km/h (3 Bft) 97,01 %
26.06.2017 09:00 21,4 C 25,4 C 71 % 1012,9 hPa 0,0 l/m 9,5 km/h (2 Bft) S-SW 0,17 h 0,203 mm 1,9 UV-I 331 W/m 15,9 C 20,4 C 15,7 km/h (3 Bft) 95,44 %
26.06.2017 10:00 23,1 C 24,4 C 61 % 1012,7 hPa 0,0 l/m 9,2 km/h (2 Bft) SW 0,27 h 0,254 mm 2,8 UV-I 420 W/m 15,3 C 22,3 C 15,4 km/h (3 Bft) 96,70 %
26.06.2017 11:00 24,5 C 24,4 C 54 % 1012,3 hPa 0,0 l/m 10,1 km/h (2 Bft) W-SW 0,72 h 0,330 mm 5,2 UV-I 803 W/m 14,6 C 23,6 C 16,9 km/h (3 Bft) 96,97 %
26.06.2017 12:00 26,0 C 24,8 C 49 % 1012,0 hPa 0,0 l/m 11,0 km/h (2 Bft) W-SW 0,83 h 0,508 mm 6,3 UV-I 887 W/m 14,6 C 25,2 C 18,7 km/h (3 Bft) 97,88 %
26.06.2017 13:00 27,2 C 25,0 C 46 % 1011,5 hPa 0,0 l/m 11,2 km/h (2 Bft) SW 0,93 h 0,635 mm 6,9 UV-I 953 W/m 14,4 C 26,5 C 18,7 km/h (3 Bft) 95,37 %
26.06.2017 14:00 28,0 C 25,5 C 44 % 1010,8 hPa 0,0 l/m 7,0 km/h (2 Bft) W-SW 1,00 h 0,686 mm 6,5 UV-I 864 W/m 14,5 C 27,8 C 13,5 km/h (3 Bft) 98,10 %
26.06.2017 15:00 28,7 C 25,8 C 42 % 1010,2 hPa 0,0 l/m 4,0 km/h (1 Bft) W 1,00 h 0,635 mm 5,1 UV-I 768 W/m 14,5 C 28,7 C 9,1 km/h (2 Bft) 97,57 %
26.06.2017 16:00 29,2 C 26,1 C 39 % 1009,6 hPa 0,0 l/m 3,4 km/h (1 Bft) NW 1,00 h 0,533 mm 3,5 UV-I 639 W/m 14,0 C 29,2 C 7,6 km/h (2 Bft) 96,95 %
26.06.2017 17:00 29,4 C 26,1 C 38 % 1009,0 hPa 0,0 l/m 2,5 km/h (1 Bft) O-SO 1,00 h 0,457 mm 2,0 UV-I 483 W/m 13,7 C 29,4 C 5,9 km/h (2 Bft) 97,00 %
26.06.2017 18:00 29,3 C 26,1 C 39 % 1008,5 hPa 0,0 l/m 2,7 km/h (1 Bft) N-NO 1,00 h 0,356 mm 0,9 UV-I 309 W/m 13,9 C 29,3 C 5,4 km/h (1 Bft) 97,08 %
26.06.2017 19:00 27,9 C 26,1 C 45 % 1008,1 hPa 0,0 l/m 5,8 km/h (2 Bft) N-NO 0,87 h 0,229 mm 0,5 UV-I 139 W/m 15,0 C 27,8 C 9,6 km/h (2 Bft) 94,57 %
26.06.2017 20:00 25,7 C 26,1 C 54 % 1007,9 hPa 0,0 l/m 3,9 km/h (1 Bft) NO 0,50 h 0,152 mm 0,0 UV-I 42 W/m 15,6 C 25,7 C 5,9 km/h (2 Bft) 97,98 %
26.06.2017 21:00 23,6 C 26,1 C 60 % 1008,3 hPa 0,0 l/m 2,8 km/h (1 Bft) O-NO 0,00 h 0,051 mm 0,0 UV-I 7 W/m 15,4 C 23,6 C 4,5 km/h (1 Bft) 98,38 %
26.06.2017 22:00 23,0 C 26,1 C 61 % 1008,4 hPa 0,0 l/m 5,8 km/h (2 Bft) O-NO 0,00 h 0,025 mm 0,0 UV-I 0 W/m 15,0 C 22,9 C 9,9 km/h (2 Bft) 97,39 %
26.06.2017 23:00 22,0 C 26,1 C 64 % 1008,3 hPa 0,0 l/m 5,1 km/h (1 Bft) O 0,00 h 0,051 mm 0,0 UV-I 0 W/m 15,0 C 22,0 C 8,7 km/h (2 Bft) 96,81 %
27.06.2017 00:00 19,8 C 26,1 C 74 % 1008,1 hPa 0,0 l/m 1,4 km/h (1 Bft) O-SO 0,00 h 0,000 mm 0,0 UV-I 0 W/m 15,1 C 19,8 C 2,3 km/h (1 Bft) 97,64 %
27.06.2017 01:00 18,5 C 26,1 C 80 % 1007,8 hPa 0,0 l/m 1,7 km/h (1 Bft) O-SO 0,00 h 0,000 mm 0,0 UV-I 0 W/m 15,0 C 18,5 C 2,7 km/h (1 Bft) 98,70 %
27.06.2017 02:00 17,8 C 26,1 C 83 % 1007,7 hPa 0,0 l/m 0,9 km/h (0 Bft) O-SO 0,00 h 0,000 mm 0,0 UV-I 0 W/m 14,9 C 17,8 C 1,8 km/h (1 Bft) 96,92 %
27.06.2017 03:00 17,6 C 26,1 C 85 % 1007,7 hPa 0,0 l/m 2,5 km/h (1 Bft) O-SO 0,00 h 0,000 mm 0,0 UV-I 0 W/m 15,0 C 17,6 C 4,1 km/h (1 Bft) 97,47 %
27.06.2017 04:00 17,6 C 26,1 C 85 % 1007,6 hPa 0,0 l/m 1,6 km/h (1 Bft) S-SW 0,00 h 0,000 mm 0,0 UV-I 5 W/m 15,0 C 17,6 C 3,0 km/h (1 Bft) 98,13 %
27.06.2017 05:00 17,7 C 26,1 C 86 % 1007,3 hPa 0,0 l/m 1,7 km/h (1 Bft) S-SO 0,23 h 0,000 mm 0,0 UV-I 24 W/m 15,2 C 17,7 C 3,3 km/h (1 Bft) 98,35 %
27.06.2017 06:00 18,1 C 26,1 C 86 % 1008,0 hPa 0,0 l/m 5,4 km/h (1 Bft) S-SW 0,00 h 0,025 mm 0,0 UV-I 80 W/m 15,7 C 18,0 C 8,4 km/h (2 Bft) 96,02 %
27.06.2017 07:00 19,9 C 26,1 C 78 % 1008,6 hPa 0,0 l/m 7,8 km/h (2 Bft) W-SW 0,43 h 0,051 mm 0,7 UV-I 204 W/m 16,0 C 19,3 C 12,7 km/h (3 Bft) 97,54 %
27.06.2017 08:00 21,3 C 26,1 C 73 % 1009,3 hPa 0,0 l/m 12,5 km/h (3 Bft) W 0,97 h 0,153 mm 1,2 UV-I 339 W/m 16,4 C 19,5 C 21,3 km/h (4 Bft) 96,77 %
27.06.2017 09:00 21,4 C 25,7 C 71 % 1009,3 hPa 0,0 l/m 7,4 km/h (2 Bft) W-SW 0,37 h 0,254 mm 1,6 UV-I 335 W/m 16,0 C 21,0 C 14,5 km/h (3 Bft) 97,83 %
27.06.2017 10:00 21,6 C 25,1 C 70 % 1009,1 hPa 0,0 l/m 5,3 km/h (1 Bft) W 0,47 h 0,228 mm 2,9 UV-I 471 W/m 15,8 C 21,5 C 10,0 km/h (2 Bft) 94,55 %
27.06.2017 11:00 23,3 C 25,6 C 65 % 1008,4 hPa 0,0 l/m 4,1 km/h (1 Bft) SO 1,00 h 0,305 mm 5,3 UV-I 765 W/m 16,2 C 23,2 C 8,4 km/h (2 Bft) 96,68 %
27.06.2017 12:00 24,9 C 25,6 C 61 % 1007,8 hPa 0,0 l/m 3,3 km/h (1 Bft) N-NO 0,97 h 0,483 mm 5,5 UV-I 781 W/m 16,9 C 24,9 C 7,3 km/h (2 Bft) 96,94 %
27.06.2017 13:00 26,0 C 26,0 C 58 % 1007,1 hPa 0,0 l/m 4,1 km/h (1 Bft) N-NO 0,90 h 0,482 mm 5,2 UV-I 701 W/m 17,2 C 26,0 C 8,8 km/h (2 Bft) 97,85 %
27.06.2017 14:00 26,9 C 26,1 C 56 % 1006,5 hPa 0,0 l/m 6,8 km/h (2 Bft) NO 0,97 h 0,483 mm 5,2 UV-I 785 W/m 17,4 C 26,7 C 13,9 km/h (3 Bft) 95,89 %
27.06.2017 15:00 27,0 C 26,6 C 57 % 1006,0 hPa 0,0 l/m 4,1 km/h (1 Bft) NW 0,70 h 0,559 mm 3,9 UV-I 642 W/m 17,6 C 27,0 C 8,7 km/h (2 Bft) 96,58 %
27.06.2017 16:00 24,2 C 26,6 C 62 % 1006,8 hPa 4,8 l/m 8,7 km/h (2 Bft) SO 0,00 h 0,431 mm 0,8 UV-I 55 W/m 16,2 C 23,0 C 14,8 km/h (3 Bft) 96,57 %
27.06.2017 17:00 18,7 C 26,1 C 87 % 1005,5 hPa 0,8 l/m 6,3 km/h (2 Bft) S-SO 0,00 h 0,102 mm 0,6 UV-I 116 W/m 16,5 C 18,4 C 10,4 km/h (2 Bft) 95,44 %
27.06.2017 18:00 20,7 C 26,1 C 86 % 1004,8 hPa 0,0 l/m 5,4 km/h (1 Bft) S-SO 0,93 h 0,076 mm 0,9 UV-I 359 W/m 18,3 C 20,6 C 10,3 km/h (2 Bft) 96,32 %
27.06.2017 19:00 22,2 C 26,1 C 81 % 1004,6 hPa 0,0 l/m 3,8 km/h (1 Bft) S-SO 1,00 h 0,229 mm 0,5 UV-I 158 W/m 18,8 C 22,2 C 7,5 km/h (2 Bft) 98,12 %
27.06.2017 20:00 20,9 C 26,1 C 85 % 1004,5 hPa 0,0 l/m 2,7 km/h (1 Bft) O 0,23 h 0,101 mm 0,0 UV-I 34 W/m 18,4 C 20,9 C 4,4 km/h (1 Bft) 97,43 %
27.06.2017 21:00 19,2 C 26,1 C 92 % 1004,4 hPa 0,0 l/m 0,7 km/h (0 Bft) SO 0,00 h 0,026 mm 0,0 UV-I 6 W/m 17,8 C 19,2 C 1,3 km/h (1 Bft) 96,32 %
27.06.2017 22:00 18,3 C 26,1 C 95 % 1004,1 hPa 0,0 l/m 1,7 km/h (1 Bft) O-NO 0,00 h 0,000 mm 0,0 UV-I 0 W/m 17,4 C 18,3 C 2,9 km/h (1 Bft) 96,36 %
27.06.2017 23:00 17,8 C 25,7 C 95 % 1003,8 hPa 0,0 l/m 0,8 km/h (0 Bft) O-NO 0,00 h 0,000 mm 0,0 UV-I 0 W/m 17,0 C 17,8 C 1,8 km/h (1 Bft) 97,37 %
28.06.2017 00:00 17,4 C 25,6 C 96 % 1003,6 hPa 0,0 l/m 0,8 km/h (0 Bft) O-NO 0,00 h 0,000 mm 0,0 UV-I 0 W/m 16,7 C 17,4 C 1,8 km/h (1 Bft) 98,01 %
28.06.2017 01:00 16,9 C 25,6 C 96 % 1003,0 hPa 0,0 l/m 0,1 km/h (0 Bft) O-NO 0,00 h 0,000 mm 0,0 UV-I 0 W/m 16,2 C 16,9 C 0,7 km/h (0 Bft) 95,80 %
28.06.2017 02:00 16,4 C 25,6 C 96 % 1002,6 hPa 0,0 l/m 0,5 km/h (0 Bft) O-NO 0,00 h 0,000 mm 0,0 UV-I 0 W/m 15,8 C 16,4 C 1,3 km/h (1 Bft) 97,12 %
28.06.2017 03:00 15,8 C 25,2 C 97 % 1001,8 hPa 0,0 l/m 0,4 km/h (0 Bft) O-NO 0,00 h 0,000 mm 0,0 UV-I 0 W/m 15,2 C 15,8 C 0,7 km/h (0 Bft) 97,87 %
28.06.2017 04:00 16,2 C 25,0 C 97 % 1001,1 hPa 0,0 l/m 1,1 km/h (1 Bft) O-NO 0,00 h 0,000 mm 0,0 UV-I 4 W/m 15,7 C 16,2 C 2,2 km/h (1 Bft) 96,66 %
28.06.2017 05:00 17,0 C 25,0 C 97 % 1000,5 hPa 0,0 l/m 3,9 km/h (1 Bft) O-NO 0,30 h 0,000 mm 0,0 UV-I 22 W/m 16,5 C 16,9 C 6,8 km/h (2 Bft) 96,10 %
28.06.2017 06:00 17,5 C 25,0 C 97 % 1000,2 hPa 0,0 l/m 6,5 km/h (2 Bft) O-NO 0,00 h 0,025 mm 0,0 UV-I 47 W/m 17,0 C 17,1 C 10,6 km/h (2 Bft) 96,92 %
28.06.2017 07:00 17,8 C 25,0 C 97 % 999,4 hPa 0,0 l/m 7,7 km/h (2 Bft) O-NO 0,00 h 0,026 mm 0,3 UV-I 92 W/m 17,4 C 17,1 C 12,0 km/h (2 Bft) 98,10 %
28.06.2017 08:00 19,0 C 25,0 C 95 % 999,2 hPa 0,0 l/m 5,4 km/h (1 Bft) O-NO 0,23 h 0,051 mm 1,0 UV-I 251 W/m 18,1 C 18,8 C 8,5 km/h (2 Bft) 96,60 %
28.06.2017 09:00 20,8 C 25,1 C 88 % 998,8 hPa 0,0 l/m 5,5 km/h (1 Bft) NO 0,57 h 0,152 mm 2,4 UV-I 490 W/m 18,6 C 20,6 C 9,1 km/h (2 Bft) 96,34 %
28.06.2017 10:00 23,1 C 25,3 C 80 % 998,9 hPa 0,0 l/m 4,1 km/h (1 Bft) NO 0,57 h 0,279 mm 3,2 UV-I 547 W/m 19,4 C 23,0 C 7,5 km/h (2 Bft) 96,95 %
28.06.2017 11:00 24,9 C 25,6 C 69 % 999,3 hPa 0,0 l/m 8,8 km/h (2 Bft) W-SW 0,57 h 0,356 mm 4,3 UV-I 644 W/m 18,8 C 24,3 C 16,3 km/h (3 Bft) 98,23 %
28.06.2017 12:00 26,6 C 25,6 C 59 % 999,6 hPa 0,0 l/m 13,5 km/h (3 Bft) W-SW 1,00 h 0,432 mm 6,0 UV-I 895 W/m 18,0 C 25,5 C 23,3 km/h (4 Bft) 97,08 %
28.06.2017 13:00 26,7 C 26,1 C 58 % 999,4 hPa 0,0 l/m 12,0 km/h (2 Bft) W-SW 0,97 h 0,660 mm 6,0 UV-I 878 W/m 17,8 C 25,9 C 21,4 km/h (4 Bft) 96,92 %
28.06.2017 14:00 27,2 C 26,1 C 54 % 998,8 hPa 0,0 l/m 10,3 km/h (2 Bft) W-SW 0,90 h 0,635 mm 5,3 UV-I 824 W/m 17,0 C 26,6 C 19,0 km/h (3 Bft) 97,75 %
28.06.2017 15:00 27,5 C 26,7 C 53 % 998,4 hPa 0,0 l/m 7,3 km/h (2 Bft) W-SW 0,93 h 0,584 mm 4,2 UV-I 733 W/m 17,0 C 27,2 C 14,5 km/h (3 Bft) 98,15 %
28.06.2017 16:00 26,9 C 26,7 C 53 % 997,5 hPa 0,0 l/m 3,4 km/h (1 Bft) W-NW 0,77 h 0,508 mm 2,3 UV-I 433 W/m 16,5 C 26,9 C 7,6 km/h (2 Bft) 96,16 %
28.06.2017 17:00 26,8 C 26,7 C 53 % 996,2 hPa 0,0 l/m 2,5 km/h (1 Bft) W 0,85 h 0,305 mm 1,3 UV-I 310 W/m 16,4 C 26,8 C 5,4 km/h (1 Bft) 98,11 %
28.06.2017 18:00 26,3 C 26,7 C 56 % 995,7 hPa 0,0 l/m 1,0 km/h (0 Bft) W 0,00 h 0,229 mm 0,7 UV-I 141 W/m 16,7 C 26,3 C 2,7 km/h (1 Bft) 97,38 %
28.06.2017 19:00 24,8 C 26,7 C 66 % 995,8 hPa 0,0 l/m 1,8 km/h (1 Bft) W 0,00 h 0,101 mm 0,0 UV-I 32 W/m 17,9 C 24,8 C 3,6 km/h (1 Bft) 96,79 %
28.06.2017 20:00 22,6 C 26,7 C 72 % 995,2 hPa 0,0 l/m 7,3 km/h (2 Bft) W-SW 0,00 h 0,026 mm 0,0 UV-I 18 W/m 17,3 C 22,1 C 12,2 km/h (2 Bft) 96,02 %
28.06.2017 21:00 20,8 C 26,7 C 77 % 995,5 hPa 0,0 l/m 8,0 km/h (2 Bft) SW 0,00 h 0,051 mm 0,0 UV-I 5 W/m 16,5 C 20,0 C 12,6 km/h (3 Bft) 96,79 %
28.06.2017 22:00 18,4 C 26,1 C 81 % 995,5 hPa 0,0 l/m 2,8 km/h (1 Bft) W 0,00 h 0,025 mm 0,0 UV-I 0 W/m 15,1 C 18,3 C 6,2 km/h (2 Bft) 98,20 %
28.06.2017 23:00 17,0 C 26,1 C 86 % 994,4 hPa 0,0 l/m 1,8 km/h (1 Bft) S 0,00 h 0,025 mm 0,0 UV-I 0 W/m 14,7 C 17,0 C 3,9 km/h (1 Bft) 96,58 %
29.06.2017 00:00 16,6 C 26,1 C 89 % 993,9 hPa 0,0 l/m 1,5 km/h (1 Bft) S-SO 0,00 h 0,000 mm 0,0 UV-I 0 W/m 14,8 C 16,6 C 3,9 km/h (1 Bft) 96,76 %
29.06.2017 01:00 16,7 C 26,1 C 90 % 993,7 hPa 0,0 l/m 1,3 km/h (1 Bft) S-SO 0,00 h 0,000 mm 0,0 UV-I 0 W/m 15,0 C 16,7 C 4,0 km/h (1 Bft) 97,03 %
29.06.2017 02:00 16,8 C 25,6 C 91 % 992,6 hPa 0,0 l/m 3,3 km/h (1 Bft) S-SO 0,00 h 0,000 mm 0,0 UV-I 0 W/m 15,2 C 16,8 C 5,8 km/h (2 Bft) 98,44 %
29.06.2017 03:00 16,6 C 25,6 C 91 % 992,3 hPa 0,0 l/m 5,3 km/h (1 Bft) SW 0,00 h 0,000 mm 0,0 UV-I 0 W/m 15,2 C 16,6 C 8,4 km/h (2 Bft) 95,61 %
29.06.2017 04:00 16,6 C 25,6 C 92 % 992,9 hPa 0,2 l/m 7,5 km/h (2 Bft) SW 0,00 h 0,000 mm 0,0 UV-I 0 W/m 15,3 C 15,7 C 12,1 km/h (2 Bft) 97,45 %
29.06.2017 05:00 16,7 C 25,1 C 90 % 993,8 hPa 0,0 l/m 17,1 km/h (3 Bft) SW 0,00 h 0,000 mm 0,0 UV-I 14 W/m 15,0 C 12,6 C 26,4 km/h (4 Bft) 96,96 %
29.06.2017 06:00 17,1 C 25,0 C 86 % 994,4 hPa 0,0 l/m 18,5 km/h (3 Bft) SW 0,20 h 0,025 mm 0,0 UV-I 85 W/m 14,8 C 12,8 C 28,6 km/h (4 Bft) 98,39 %
29.06.2017 07:00 17,4 C 25,0 C 82 % 995,2 hPa 0,0 l/m 18,4 km/h (3 Bft) SW 0,00 h 0,077 mm 0,0 UV-I 73 W/m 14,2 C 13,2 C 27,8 km/h (4 Bft) 94,62 %
29.06.2017 08:00 17,7 C 24,9 C 77 % 995,8 hPa 0,0 l/m 18,2 km/h (3 Bft) W-SW 0,00 h 0,076 mm 0,7 UV-I 147 W/m 13,5 C 13,6 C 27,6 km/h (4 Bft) 97,42 %
29.06.2017 09:00 18,6 C 24,7 C 71 % 996,2 hPa 0,2 l/m 23,6 km/h (4 Bft) W-SW 0,63 h 0,152 mm 1,9 UV-I 413 W/m 13,3 C 13,8 C 37,0 km/h (5 Bft) 97,01 %
29.06.2017 10:00 19,6 C 24,8 C 65 % 996,7 hPa 0,0 l/m 25,1 km/h (4 Bft) W-SW 0,57 h 0,356 mm 2,5 UV-I 448 W/m 12,8 C 14,9 C 37,8 km/h (5 Bft) 98,63 %
29.06.2017 11:00 20,1 C 24,9 C 64 % 997,3 hPa 0,0 l/m 28,1 km/h (4 Bft) W-SW 0,87 h 0,381 mm 5,1 UV-I 719 W/m 13,1 C 15,2 C 43,3 km/h (6 Bft) 95,16 %
29.06.2017 12:00 20,2 C 25,0 C 63 % 998,0 hPa 0,0 l/m 23,4 km/h (4 Bft) W-SW 0,37 h 0,584 mm 3,4 UV-I 458 W/m 13,1 C 16,0 C 35,9 km/h (5 Bft) 97,12 %
29.06.2017 13:00 19,6 C 24,9 C 67 % 998,6 hPa 0,0 l/m 15,9 km/h (3 Bft) W-SW 0,30 h 0,381 mm 3,0 UV-I 405 W/m 13,3 C 16,6 C 26,6 km/h (4 Bft) 96,76 %
29.06.2017 14:00 21,5 C 25,0 C 59 % 998,8 hPa 0,0 l/m 14,5 km/h (3 Bft) SW 0,60 h 0,305 mm 4,1 UV-I 612 W/m 13,2 C 19,3 C 24,0 km/h (4 Bft) 98,03 %
29.06.2017 15:00 22,5 C 25,0 C 55 % 998,7 hPa 0,0 l/m 12,5 km/h (3 Bft) W-SW 0,60 h 0,457 mm 3,7 UV-I 573 W/m 13,1 C 20,8 C 21,2 km/h (4 Bft) 95,87 %
29.06.2017 16:00 22,8 C 25,0 C 53 % 998,8 hPa 0,0 l/m 8,5 km/h (2 Bft) W 0,30 h 0,406 mm 2,0 UV-I 388 W/m 12,8 C 22,2 C 16,6 km/h (3 Bft) 96,89 %
29.06.2017 17:00 22,5 C 25,0 C 53 % 998,9 hPa 0,0 l/m 8,3 km/h (2 Bft) W-SW 0,00 h 0,280 mm 0,9 UV-I 183 W/m 12,3 C 21,8 C 14,1 km/h (3 Bft) 96,98 %
29.06.2017 18:00 22,2 C 25,0 C 53 % 999,1 hPa 0,0 l/m 9,8 km/h (2 Bft) S-SW 0,30 h 0,178 mm 0,6 UV-I 169 W/m 12,1 C 21,1 C 16,5 km/h (3 Bft) 95,64 %
29.06.2017 19:00 22,0 C 25,0 C 52 % 999,6 hPa 0,0 l/m 9,7 km/h (2 Bft) S-SW 0,30 h 0,177 mm 0,3 UV-I 127 W/m 11,9 C 21,0 C 17,3 km/h (3 Bft) 96,61 %
29.06.2017 20:00 20,3 C 25,0 C 59 % 999,8 hPa 0,0 l/m 4,1 km/h (1 Bft) SW 0,03 h 0,153 mm 0,0 UV-I 30 W/m 11,8 C 20,1 C 7,2 km/h (2 Bft) 96,69 %
29.06.2017 21:00 18,6 C 24,4 C 67 % 1000,7 hPa 0,0 l/m 6,1 km/h (2 Bft) SW 0,00 h 0,051 mm 0,0 UV-I 6 W/m 12,4 C 18,3 C 9,3 km/h (2 Bft) 98,63 %
29.06.2017 22:00 18,6 C 24,4 C 67 % 1002,3 hPa 0,0 l/m 12,5 km/h (3 Bft) W-SW 0,00 h 0,025 mm 0,0 UV-I 0 W/m 12,3 C 16,3 C 19,4 km/h (3 Bft) 97,42 %
29.06.2017 23:00 17,5 C 24,4 C 69 % 1003,6 hPa 0,0 l/m 16,5 km/h (3 Bft) SW 0,00 h 0,051 mm 0,0 UV-I 0 W/m 11,6 C 14,0 C 24,9 km/h (4 Bft) 96,38 %
30.06.2017 00:00 14,9 C 24,4 C 84 % 1004,0 hPa 0,4 l/m 13,2 km/h (3 Bft) SW 0,00 h 0,000 mm 0,0 UV-I 0 W/m 12,2 C 11,8 C 19,7 km/h (3 Bft) 96,73 %
30.06.2017 01:00 14,4 C 24,4 C 87 % 1004,3 hPa 0,0 l/m 16,5 km/h (3 Bft) SW 0,00 h 0,025 mm 0,0 UV-I 0 W/m 12,2 C 10,1 C 24,9 km/h (4 Bft) 98,28 %
30.06.2017 02:00 14,3 C 24,4 C 88 % 1004,5 hPa 0,0 l/m 8,5 km/h (2 Bft) S-SW 0,00 h 0,026 mm 0,0 UV-I 0 W/m 12,3 C 13,0 C 13,4 km/h (3 Bft) 97,83 %
30.06.2017 03:00 14,6 C 24,4 C 85 % 1004,6 hPa 0,0 l/m 9,5 km/h (2 Bft) SW 0,00 h 0,025 mm 0,0 UV-I 0 W/m 12,2 C 13,0 C 15,0 km/h (3 Bft) 95,63 %
30.06.2017 04:00 14,9 C 24,4 C 82 % 1004,9 hPa 0,0 l/m 12,6 km/h (3 Bft) W-SW 0,00 h 0,026 mm 0,0 UV-I 0 W/m 11,8 C 11,9 C 19,1 km/h (3 Bft) 97,50 %
30.06.2017 05:00 14,9 C 24,4 C 80 % 1005,7 hPa 0,0 l/m 7,2 km/h (2 Bft) SW 0,00 h 0,025 mm 0,0 UV-I 9 W/m 11,5 C 14,2 C 11,0 km/h (2 Bft) 97,05 %
30.06.2017 06:00 14,8 C 24,4 C 81 % 1006,1 hPa 0,0 l/m 10,6 km/h (2 Bft) SW 0,00 h 0,025 mm 0,0 UV-I 36 W/m 11,6 C 12,7 C 16,0 km/h (3 Bft) 96,36 %
30.06.2017 07:00 15,4 C 24,4 C 75 % 1006,7 hPa 0,2 l/m 12,6 km/h (3 Bft) SW 0,33 h 0,051 mm 0,8 UV-I 172 W/m 11,0 C 12,6 C 19,9 km/h (4 Bft) 95,54 %
30.06.2017 08:00 17,3 C 24,4 C 66 % 1007,2 hPa 0,0 l/m 14,0 km/h (3 Bft) SW 0,60 h 0,127 mm 1,2 UV-I 348 W/m 10,9 C 14,5 C 22,1 km/h (4 Bft) 97,37 %
30.06.2017 09:00 19,2 C 24,4 C 57 % 1007,4 hPa 0,0 l/m 16,5 km/h (3 Bft) SW 1,00 h 0,280 mm 2,5 UV-I 661 W/m 10,5 C 16,0 C 25,4 km/h (4 Bft) 97,56 %
30.06.2017 10:00 19,3 C 23,6 C 55 % 1007,3 hPa 0,0 l/m 14,4 km/h (3 Bft) W-SW 0,33 h 0,457 mm 3,0 UV-I 434 W/m 10,1 C 16,6 C 23,3 km/h (4 Bft) 94,98 %
30.06.2017 11:00 21,0 C 23,3 C 51 % 1007,6 hPa 0,0 l/m 13,2 km/h (3 Bft) W-SW 0,90 h 0,381 mm 5,0 UV-I 844 W/m 10,4 C 18,9 C 21,6 km/h (4 Bft) 97,08 %
30.06.2017 12:00 22,0 C 23,3 C 46 % 1007,3 hPa 0,0 l/m 11,0 km/h (2 Bft) SW 0,80 h 0,559 mm 5,8 UV-I 878 W/m 9,8 C 20,6 C 19,0 km/h (3 Bft) 96,95 %
30.06.2017 13:00 23,0 C 23,8 C 43 % 1006,9 hPa 0,0 l/m 9,6 km/h (2 Bft) W-SW 0,97 h 0,584 mm 5,9 UV-I 903 W/m 9,7 C 22,0 C 16,5 km/h (3 Bft) 98,53 %
30.06.2017 14:00 23,7 C 23,9 C 40 % 1006,4 hPa 0,0 l/m 7,2 km/h (2 Bft) S 0,93 h 0,584 mm 5,4 UV-I 789 W/m 9,3 C 23,3 C 13,3 km/h (3 Bft) 94,76 %
30.06.2017 15:00 23,5 C 24,3 C 40 % 1006,1 hPa 0,0 l/m 5,8 km/h (2 Bft) S-SW 0,43 h 0,559 mm 3,2 UV-I 501 W/m 9,3 C 23,3 C 10,0 km/h (2 Bft) 96,32 %
30.06.2017 16:00 24,0 C 24,4 C 40 % 1005,3 hPa 0,0 l/m 4,8 km/h (1 Bft) SO 0,90 h 0,330 mm 2,8 UV-I 578 W/m 9,7 C 23,9 C 8,7 km/h (2 Bft) 96,72 %
30.06.2017 17:00 24,5 C 24,4 C 40 % 1005,0 hPa 0,0 l/m 5,0 km/h (1 Bft) NO 0,80 h 0,406 mm 1,7 UV-I 433 W/m 9,9 C 24,3 C 9,1 km/h (2 Bft) 98,60 %
30.06.2017 18:00 22,8 C 24,4 C 47 % 1005,0 hPa 0,0 l/m 4,3 km/h (1 Bft) SO 0,00 h 0,305 mm 0,6 UV-I 92 W/m 10,8 C 22,7 C 7,6 km/h (2 Bft) 94,78 %
30.06.2017 19:00 18,6 C 24,4 C 69 % 1005,7 hPa 1,4 l/m 10,3 km/h (2 Bft) O-NO 0,00 h 0,102 mm 0,0 UV-I 20 W/m 12,7 C 17,1 C 15,9 km/h (3 Bft) 97,75 %
30.06.2017 20:00 16,1 C 24,0 C 80 % 1006,7 hPa 0,0 l/m 13,7 km/h (3 Bft) SW 0,10 h 0,051 mm 0,0 UV-I 12 W/m 12,6 C 13,1 C 21,1 km/h (4 Bft) 96,31 %
30.06.2017 21:00 15,1 C 23,9 C 81 % 1007,1 hPa 0,0 l/m 11,9 km/h (2 Bft) S-SW 0,00 h 0,050 mm 0,0 UV-I 9 W/m 11,9 C 12,5 C 20,5 km/h (4 Bft) 97,98 %
30.06.2017 22:00 14,8 C 23,9 C 78 % 1006,6 hPa 0,0 l/m 7,7 km/h (2 Bft) S-SO 0,00 h 0,026 mm 0,0 UV-I 0 W/m 10,9 C 13,7 C 14,2 km/h (3 Bft) 94,28 %
30.06.2017 23:00 13,8 C 23,4 C 83 % 1007,2 hPa 0,0 l/m 2,1 km/h (1 Bft) S-SO 0,00 h 0,025 mm 0,0 UV-I 0 W/m 10,9 C 13,8 C 4,8 km/h (1 Bft) 98,38 %
01.07.2017 00:00 12,9 C 23,3 C 88 % 1007,4 hPa 0,0 l/m 1,3 km/h (1 Bft) O-NO 0,00 h 0,000 mm 0,0 UV-I 0 W/m 10,9 C 12,9 C 2,5 km/h (1 Bft) 96,82 %
01.07.2017 01:00 12,5 C 23,3 C 89 % 1007,5 hPa 0,0 l/m 2,0 km/h (1 Bft) O-NO 0,00 h 0,000 mm 0,0 UV-I 0 W/m 10,8 C 12,5 C 3,6 km/h (1 Bft) 97,26 %
01.07.2017 02:00 12,8 C 23,3 C 87 % 1007,5 hPa 0,0 l/m 4,2 km/h (1 Bft) SW 0,00 h 0,000 mm 0,0 UV-I 0 W/m 10,7 C 12,8 C 6,6 km/h (2 Bft) 96,36 %
01.07.2017 03:00 12,7 C 22,8 C 88 % 1007,9 hPa 0,0 l/m 5,1 km/h (1 Bft) S-SW 0,00 h 0,000 mm 0,0 UV-I 0 W/m 10,8 C 12,7 C 8,0 km/h (2 Bft) 98,21 %
01.07.2017 04:00 12,7 C 22,8 C 88 % 1008,2 hPa 0,0 l/m 7,2 km/h (2 Bft) S-SW 0,00 h 0,000 mm 0,0 UV-I 2 W/m 10,8 C 12,1 C 11,4 km/h (2 Bft) 96,71 %
01.07.2017 05:00 12,9 C 22,8 C 88 % 1008,7 hPa 0,0 l/m 10,4 km/h (2 Bft) SW 0,07 h 0,025 mm 0,0 UV-I 17 W/m 11,0 C 10,7 C 15,4 km/h (3 Bft) 95,99 %
01.07.2017 06:00 13,8 C 22,4 C 86 % 1009,5 hPa 0,2 l/m 12,3 km/h (3 Bft) W-SW 0,00 h 0,026 mm 0,0 UV-I 31 W/m 11,4 C 10,8 C 18,4 km/h (3 Bft) 97,19 %
01.07.2017 07:00 14,1 C 22,2 C 87 % 1010,2 hPa 0,0 l/m 10,2 km/h (2 Bft) S-SW 0,00 h 0,025 mm 0,4 UV-I 88 W/m 11,9 C 12,0 C 16,0 km/h (3 Bft) 97,02 %
01.07.2017 08:00 15,6 C 22,2 C 81 % 1010,8 hPa 0,0 l/m 9,8 km/h (2 Bft) SW 0,00 h 0,051 mm 0,6 UV-I 173 W/m 12,3 C 13,9 C 15,6 km/h (3 Bft) 95,92 %
01.07.2017 09:00 17,1 C 22,2 C 75 % 1010,9 hPa 0,0 l/m 10,8 km/h (2 Bft) W-SW 0,23 h 0,127 mm 1,4 UV-I 311 W/m 12,6 C 15,4 C 16,7 km/h (3 Bft) 96,34 %
01.07.2017 10:00 18,8 C 22,4 C 65 % 1010,9 hPa 0,0 l/m 14,2 km/h (3 Bft) W-SW 0,70 h 0,203 mm 3,2 UV-I 618 W/m 12,0 C 16,0 C 23,1 km/h (4 Bft) 96,78 %
01.07.2017 11:00 20,2 C 22,8 C 57 % 1010,8 hPa 0,0 l/m 16,7 km/h (3 Bft) SW 0,55 h 0,407 mm 3,6 UV-I 602 W/m 11,3 C 17,1 C 26,3 km/h (4 Bft) 97,34 %
01.07.2017 12:00 19,9 C 22,8 C 55 % 1010,9 hPa 0,0 l/m 13,0 km/h (3 Bft) W-SW 0,10 h 0,431 mm 2,0 UV-I 275 W/m 10,5 C 17,7 C 20,4 km/h (4 Bft) 96,89 %
01.07.2017 13:00 20,8 C 22,8 C 51 % 1010,9 hPa 0,0 l/m 17,0 km/h (3 Bft) SW 0,20 h 0,254 mm 3,5 UV-I 464 W/m 10,4 C 17,9 C 26,3 km/h (4 Bft) 95,50 %
01.07.2017 14:00 20,6 C 22,8 C 52 % 1010,9 hPa 0,0 l/m 11,1 km/h (2 Bft) W-SW 0,30 h 0,407 mm 3,0 UV-I 520 W/m 10,3 C 19,0 C 18,2 km/h (3 Bft) 97,50 %
01.07.2017 15:00 23,0 C 22,8 C 46 % 1010,3 hPa 0,0 l/m 9,4 km/h (2 Bft) SW 0,87 h 0,381 mm 4,0 UV-I 795 W/m 10,6 C 22,2 C 17,6 km/h (3 Bft) 97,70 %
01.07.2017 16:00 23,5 C 23,3 C 42 % 1010,1 hPa 0,0 l/m 13,8 km/h (3 Bft) W-SW 0,80 h 0,533 mm 2,8 UV-I 587 W/m 10,0 C 21,8 C 22,2 km/h (4 Bft) 98,19 %
01.07.2017 17:00 24,0 C 23,3 C 40 % 1010,0 hPa 0,0 l/m 10,3 km/h (2 Bft) W-SW 1,00 h 0,483 mm 1,7 UV-I 568 W/m 9,4 C 23,0 C 17,8 km/h (3 Bft) 95,16 %
01.07.2017 18:00 23,7 C 23,3 C 38 % 1010,2 hPa 0,0 l/m 13,1 km/h (3 Bft) W-SW 0,97 h 0,432 mm 0,8 UV-I 360 W/m 8,5 C 22,2 C 21,5 km/h (4 Bft) 97,19 %
01.07.2017 19:00 22,5 C 23,3 C 40 % 1010,6 hPa 0,0 l/m 12,0 km/h (2 Bft) W-SW 0,47 h 0,330 mm 0,1 UV-I 121 W/m 8,4 C 20,9 C 19,1 km/h (3 Bft) 97,30 %
01.07.2017 20:00 21,5 C 23,3 C 43 % 1010,9 hPa 0,0 l/m 11,4 km/h (2 Bft) SW 0,70 h 0,178 mm 0,0 UV-I 45 W/m 8,4 C 20,0 C 17,3 km/h (3 Bft) 97,46 %
01.07.2017 21:00 19,8 C 23,0 C 50 % 1011,5 hPa 0,0 l/m 8,5 km/h (2 Bft) W-SW 0,00 h 0,127 mm 0,0 UV-I 5 W/m 9,1 C 18,9 C 13,3 km/h (3 Bft) 95,33 %
01.07.2017 22:00 19,1 C 22,8 C 57 % 1012,2 hPa 0,0 l/m 12,7 km/h (3 Bft) SW 0,00 h 0,076 mm 0,0 UV-I 0 W/m 10,4 C 16,8 C 19,1 km/h (3 Bft) 97,54 %
01.07.2017 23:00 17,9 C 22,8 C 63 % 1012,6 hPa 0,0 l/m 12,9 km/h (3 Bft) SW 0,00 h 0,076 mm 0,0 UV-I 0 W/m 10,8 C 15,3 C 18,9 km/h (3 Bft) 96,83 %
02.07.2017 00:00 17,2 C 22,7 C 67 % 1012,9 hPa 0,0 l/m 13,3 km/h (3 Bft) SW 0,00 h 0,000 mm 0,0 UV-I 0 W/m 11,0 C 14,4 C 20,4 km/h (4 Bft) 98,74 %
02.07.2017 01:00 16,8 C 22,2 C 68 % 1012,9 hPa 0,0 l/m 13,8 km/h (3 Bft) SW 0,00 h 0,051 mm 0,0 UV-I 0 W/m 10,9 C 13,7 C 21,2 km/h (4 Bft) 94,74 %
02.07.2017 02:00 16,8 C 22,2 C 68 % 1013,2 hPa 0,0 l/m 11,1 km/h (2 Bft) SW 0,00 h 0,051 mm 0,0 UV-I 0 W/m 10,9 C 14,8 C 17,2 km/h (3 Bft) 97,52 %
02.07.2017 03:00 16,2 C 22,2 C 70 % 1013,3 hPa 0,0 l/m 12,4 km/h (3 Bft) SW 0,00 h 0,050 mm 0,0 UV-I 0 W/m 10,9 C 13,6 C 18,7 km/h (3 Bft) 96,90 %
02.07.2017 04:00 16,3 C 21,8 C 70 % 1013,4 hPa 0,0 l/m 10,4 km/h (2 Bft) W-SW 0,00 h 0,051 mm 0,0 UV-I 0 W/m 10,7 C 14,5 C 15,7 km/h (3 Bft) 97,46 %
02.07.2017 05:00 16,3 C 21,7 C 70 % 1013,5 hPa 0,0 l/m 14,6 km/h (3 Bft) W-SW 0,00 h 0,051 mm 0,0 UV-I 12 W/m 10,8 C 13,0 C 21,7 km/h (4 Bft) 94,89 %
02.07.2017 06:00 16,0 C 21,7 C 74 % 1014,1 hPa 0,0 l/m 15,1 km/h (3 Bft) W-SW 0,00 h 0,076 mm 0,0 UV-I 16 W/m 11,3 C 12,5 C 23,2 km/h (4 Bft) 98,13 %
02.07.2017 07:00 14,6 C 21,7 C 87 % 1014,6 hPa 1,4 l/m 13,2 km/h (3 Bft) SW 0,00 h 0,051 mm 0,0 UV-I 48 W/m 12,4 C 11,5 C 20,0 km/h (4 Bft) 96,15 %
02.07.2017 08:00 14,3 C 21,5 C 92 % 1015,0 hPa 0,2 l/m 11,8 km/h (2 Bft) SW 0,00 h 0,051 mm 0,5 UV-I 89 W/m 13,1 C 11,6 C 18,6 km/h (3 Bft) 97,21 %
02.07.2017 09:00 14,5 C 21,1 C 94 % 1015,3 hPa 0,0 l/m 12,9 km/h (3 Bft) SW 0,00 h 0,051 mm 0,6 UV-I 108 W/m 13,4 C 11,4 C 19,7 km/h (3 Bft) 94,10 %
02.07.2017 10:00 14,8 C 21,1 C 94 % 1015,7 hPa 0,2 l/m 11,2 km/h (2 Bft) W-SW 0,00 h 0,076 mm 0,8 UV-I 125 W/m 13,8 C 12,4 C 17,5 km/h (3 Bft) 96,60 %
02.07.2017 11:00 15,1 C 21,1 C 94 % 1016,2 hPa 0,4 l/m 9,0 km/h (2 Bft) W-SW 0,00 h 0,076 mm 1,3 UV-I 181 W/m 14,2 C 13,8 C 14,7 km/h (3 Bft) 95,68 %
02.07.2017 12:00 15,8 C 21,1 C 94 % 1016,4 hPa 0,4 l/m 8,3 km/h (2 Bft) W-SW 0,00 h 0,102 mm 2,1 UV-I 270 W/m 14,8 C 14,7 C 13,7 km/h (3 Bft) 97,88 %
02.07.2017 13:00 16,3 C 21,1 C 92 % 1016,4 hPa 0,0 l/m 9,2 km/h (2 Bft) SW 0,00 h 0,152 mm 1,5 UV-I 196 W/m 15,1 C 15,0 C 14,4 km/h (3 Bft) 94,06 %
02.07.2017 14:00 18,3 C 21,5 C 83 % 1016,2 hPa 0,0 l/m 9,8 km/h (2 Bft) W-SW 0,07 h 0,127 mm 3,4 UV-I 409 W/m 15,4 C 16,9 C 16,2 km/h (3 Bft) 97,10 %
02.07.2017 15:00 19,8 C 21,7 C 73 % 1015,9 hPa 0,2 l/m 15,2 km/h (3 Bft) SW 0,40 h 0,279 mm 3,0 UV-I 432 W/m 14,9 C 17,0 C 23,3 km/h (4 Bft) 95,92 %
02.07.2017 16:00 20,4 C 21,7 C 70 % 1015,7 hPa 0,0 l/m 16,7 km/h (3 Bft) W-SW 0,57 h 0,331 mm 2,3 UV-I 451 W/m 14,7 C 17,4 C 26,9 km/h (4 Bft) 96,62 %
02.07.2017 17:00 20,3 C 21,7 C 69 % 1015,6 hPa 0,0 l/m 18,8 km/h (3 Bft) W-SW 0,40 h 0,330 mm 1,4 UV-I 318 W/m 14,4 C 16,9 C 29,0 km/h (5 Bft) 94,15 %
02.07.2017 18:00 18,0 C 21,7 C 79 % 1016,3 hPa 0,0 l/m 17,6 km/h (3 Bft) W-SW 0,00 h 0,254 mm 0,4 UV-I 104 W/m 14,2 C 14,3 C 26,9 km/h (4 Bft) 96,79 %
02.07.2017 19:00 17,0 C 21,7 C 85 % 1016,8 hPa 0,0 l/m 12,1 km/h (2 Bft) W-SW 0,00 h 0,101 mm 0,0 UV-I 42 W/m 14,4 C 14,6 C 18,4 km/h (3 Bft) 97,36 %
02.07.2017 20:00 16,6 C 21,7 C 89 % 1017,2 hPa 0,0 l/m 10,0 km/h (2 Bft) SW 0,03 h 0,051 mm 0,0 UV-I 21 W/m 14,8 C 14,9 C 15,8 km/h (3 Bft) 98,34 %
02.07.2017 21:00 16,0 C 21,4 C 89 % 1017,7 hPa 0,0 l/m 12,9 km/h (3 Bft) SW 0,00 h 0,026 mm 0,0 UV-I 6 W/m 14,3 C 13,2 C 19,9 km/h (4 Bft) 96,01 %
02.07.2017 22:00 15,9 C 21,1 C 90 % 1018,0 hPa 0,0 l/m 9,7 km/h (2 Bft) SW 0,00 h 0,025 mm 0,0 UV-I 0 W/m 14,1 C 14,3 C 15,8 km/h (3 Bft) 97,03 %
02.07.2017 23:00 15,8 C 21,1 C 90 % 1018,3 hPa 0,0 l/m 11,0 km/h (2 Bft) SW 0,00 h 0,025 mm 0,0 UV-I 0 W/m 14,2 C 13,6 C 17,3 km/h (3 Bft) 96,67 %
Min-Datum _ 01.07.17 02.07.17 26.06.17 29.06.17 - 27.06.17 - - - - - 01.07.17 30.06.17 27.06.17 26.06.17
_ Min-Zeit 01:38 08:38 17:46 03:14 - 00:28 - - - - - 19:06 01:24 00:28 06:54
Minimum _ 12,2 C 21,1 C 36 % 992,1 hPa - 0,0 km/h (0 Bft) - - - - - 7,9 C 9,0 C 0,0 km/h (0 Bft) 81,82 %
Max-Datum _ 26.06.17 27.06.17 28.06.17 02.07.17 27.06.17 29.06.17 - 26.06.17 26.06.17 26.06.17 26.06.17 28.06.17 26.06.17 29.06.17 26.06.17
_ Max-Zeit 15:52 15:09 06:36 23:50 16:52 11:00 - 11:15 14:02 13:00 13:10 10:26 15:52 11:36 00:30
Maximum _ 29,8 C 26,7 C 98 % 1018,4 hPa 4,8 l/m 41,8 km/h
W-SW (6 Bft)
- 0,08 h 0,686 mm 7,8 UV-I 1164 W/m 19,9 C 29,8 C 56,3 km/h
W-SW (7 Bft)
100,00 %
Durchschnitt _ 19,6 C 24,4 C 71 % 1006,5 hPa #11,0 l/m 8,9 km/h (2 Bft) SW #48:36 h #30,073 mm 2,6 UV-I 323 W/m 13,8 C 18,3 C 14,5 km/h (3 Bft) 96,87 %